sensor_id;sensor_type;location;lat;lon;timestamp;pressure;altitude;pressure_sealevel;temperature;humidity
32081;BME280;18593;51.426;7.030;2023-07-24T00:01:06;99537.00;;;19.45;79.24
32081;BME280;18593;51.426;7.030;2023-07-24T00:03:35;99542.09;;;19.46;79.11
32081;BME280;18593;51.426;7.030;2023-07-24T00:06:03;99529.09;;;19.48;78.85
32081;BME280;18593;51.426;7.030;2023-07-24T00:08:30;99529.91;;;19.49;78.46
32081;BME280;18593;51.426;7.030;2023-07-24T00:10:57;99529.09;;;19.48;78.78
32081;BME280;18593;51.426;7.030;2023-07-24T00:13:24;99528.56;;;19.46;78.90
32081;BME280;18593;51.426;7.030;2023-07-24T00:15:52;99521.56;;;19.45;78.88
32081;BME280;18593;51.426;7.030;2023-07-24T00:18:19;99521.78;;;19.49;78.83
32081;BME280;18593;51.426;7.030;2023-07-24T00:20:47;99522.59;;;19.49;78.70
32081;BME280;18593;51.426;7.030;2023-07-24T00:23:14;99512.28;;;19.51;78.82
32081;BME280;18593;51.426;7.030;2023-07-24T00:25:42;99516.59;;;19.52;78.34
32081;BME280;18593;51.426;7.030;2023-07-24T00:28:09;99510.66;;;19.50;79.05
32081;BME280;18593;51.426;7.030;2023-07-24T00:30:38;99504.75;;;19.48;79.28
32081;BME280;18593;51.426;7.030;2023-07-24T00:33:05;99498.56;;;19.48;79.19
32081;BME280;18593;51.426;7.030;2023-07-24T00:35:32;99495.63;;;19.44;79.74
32081;BME280;18593;51.426;7.030;2023-07-24T00:38:01;99500.72;;;19.46;79.40
32081;BME280;18593;51.426;7.030;2023-07-24T00:40:28;99496.13;;;19.46;78.89
32081;BME280;18593;51.426;7.030;2023-07-24T00:42:55;99498.81;;;19.46;79.11
32081;BME280;18593;51.426;7.030;2023-07-24T00:45:23;99497.75;;;19.47;78.67
32081;BME280;18593;51.426;7.030;2023-07-24T00:47:51;99502.63;;;19.45;78.18
32081;BME280;18593;51.426;7.030;2023-07-24T00:50:18;99505.03;;;19.47;78.33
32081;BME280;18593;51.426;7.030;2023-07-24T00:52:46;99505.88;;;19.47;78.61
32081;BME280;18593;51.426;7.030;2023-07-24T00:55:15;99498.81;;;19.46;78.66
32081;BME280;18593;51.426;7.030;2023-07-24T00:57:43;99487.50;;;19.44;78.68
32081;BME280;18593;51.426;7.030;2023-07-24T01:00:12;99491.31;;;19.43;78.21
32081;BME280;18593;51.426;7.030;2023-07-24T01:02:39;99492.69;;;19.41;78.80
32081;BME280;18593;51.426;7.030;2023-07-24T01:05:12;99491.66;;;19.37;78.78
32081;BME280;18593;51.426;7.030;2023-07-24T01:07:39;99479.78;;;19.38;78.76
32081;BME280;18593;51.426;7.030;2023-07-24T01:10:08;99482.47;;;19.38;78.75
32081;BME280;18593;51.426;7.030;2023-07-24T01:12:43;99476.25;;;19.37;78.86
32081;BME280;18593;51.426;7.030;2023-07-24T01:15:19;99475.44;;;19.37;79.01
32081;BME280;18593;51.426;7.030;2023-07-24T01:17:57;99466.53;;;19.36;78.62
32081;BME280;18593;51.426;7.030;2023-07-24T01:20:28;99460.63;;;19.34;78.94
32081;BME280;18593;51.426;7.030;2023-07-24T01:23:22;99452.22;;;19.36;78.41
32081;BME280;18593;51.426;7.030;2023-07-24T01:26:05;99448.41;;;19.37;78.11
32081;BME280;18593;51.426;7.030;2023-07-24T01:28:33;99452.50;;;19.34;77.95
32081;BME280;18593;51.426;7.030;2023-07-24T01:31:02;99446.00;;;19.35;77.99
32081;BME280;18593;51.426;7.030;2023-07-24T01:33:29;99442.50;;;19.35;78.02
32081;BME280;18593;51.426;7.030;2023-07-24T01:35:59;99434.09;;;19.36;77.50
32081;BME280;18593;51.426;7.030;2023-07-24T01:38:28;99426.78;;;19.37;77.56
32081;BME280;18593;51.426;7.030;2023-07-24T01:41:00;99424.06;;;19.37;77.27
32081;BME280;18593;51.426;7.030;2023-07-24T01:43:31;99420.56;;;19.36;77.22
32081;BME280;18593;51.426;7.030;2023-07-24T01:45:59;99417.38;;;19.34;77.01
32081;BME280;18593;51.426;7.030;2023-07-24T01:48:26;99412.25;;;19.33;77.35
32081;BME280;18593;51.426;7.030;2023-07-24T01:50:54;99418.56;;;19.28;77.47
32081;BME280;18593;51.426;7.030;2023-07-24T01:53:21;99409.13;;;19.25;77.74
32081;BME280;18593;51.426;7.030;2023-07-24T01:55:48;99409.59;;;19.27;77.88
32081;BME280;18593;51.426;7.030;2023-07-24T01:58:17;99400.69;;;19.27;77.88
32081;BME280;18593;51.426;7.030;2023-07-24T02:00:45;99391.28;;;19.24;77.50
32081;BME280;18593;51.426;7.030;2023-07-24T02:03:12;99396.69;;;19.24;77.60
32081;BME280;18593;51.426;7.030;2023-07-24T02:05:39;99388.28;;;19.26;77.17
32081;BME280;18593;51.426;7.030;2023-07-24T02:08:06;99397.19;;;19.26;77.14
32081;BME280;18593;51.426;7.030;2023-07-24T02:10:37;99394.50;;;19.26;76.86
32081;BME280;18593;51.426;7.030;2023-07-24T02:13:04;99402.91;;;19.25;77.11
32081;BME280;18593;51.426;7.030;2023-07-24T02:15:34;99392.41;;;19.23;77.16
32081;BME280;18593;51.426;7.030;2023-07-24T02:18:02;99390.50;;;19.24;77.28
32081;BME280;18593;51.426;7.030;2023-07-24T02:20:29;99395.91;;;19.24;77.37
32081;BME280;18593;51.426;7.030;2023-07-24T02:22:56;99381.84;;;19.22;77.53
32081;BME280;18593;51.426;7.030;2023-07-24T02:25:24;99384.88;;;19.20;77.40
32081;BME280;18593;51.426;7.030;2023-07-24T02:27:51;99377.06;;;19.19;78.18
32081;BME280;18593;51.426;7.030;2023-07-24T02:30:18;99378.97;;;19.18;78.39
32081;BME280;18593;51.426;7.030;2023-07-24T02:32:47;99375.44;;;19.18;78.26
32081;BME280;18593;51.426;7.030;2023-07-24T02:35:15;99368.94;;;19.19;78.55
32081;BME280;18593;51.426;7.030;2023-07-24T02:37:45;99361.91;;;19.18;78.64
32081;BME280;18593;51.426;7.030;2023-07-24T02:40:13;99365.94;;;19.20;78.83
32081;BME280;18593;51.426;7.030;2023-07-24T02:42:40;99359.44;;;19.21;78.14
32081;BME280;18593;51.426;7.030;2023-07-24T02:45:09;99362.66;;;19.23;78.52
32081;BME280;18593;51.426;7.030;2023-07-24T02:47:36;99373.16;;;19.25;78.57
32081;BME280;18593;51.426;7.030;2023-07-24T02:50:07;99378.88;;;19.23;78.61
32081;BME280;18593;51.426;7.030;2023-07-24T02:52:34;99374.53;;;19.22;78.86
32081;BME280;18593;51.426;7.030;2023-07-24T02:55:02;99367.28;;;19.23;79.21
32081;BME280;18593;51.426;7.030;2023-07-24T02:57:29;99366.66;;;19.26;79.00
32081;BME280;18593;51.426;7.030;2023-07-24T02:59:57;99356.66;;;19.26;78.84
32081;BME280;18593;51.426;7.030;2023-07-24T03:02:25;99348.84;;;19.25;79.47
32081;BME280;18593;51.426;7.030;2023-07-24T03:04:52;99348.53;;;19.26;79.41
32081;BME280;18593;51.426;7.030;2023-07-24T03:07:21;99357.44;;;19.27;79.22
32081;BME280;18593;51.426;7.030;2023-07-24T03:09:50;99348.25;;;19.28;79.44
32081;BME280;18593;51.426;7.030;2023-07-24T03:12:17;99353.94;;;19.26;79.55
32081;BME280;18593;51.426;7.030;2023-07-24T03:14:45;99358.06;;;19.24;79.76
32081;BME280;18593;51.426;7.030;2023-07-24T03:17:12;99359.97;;;19.23;79.84
32081;BME280;18593;51.426;7.030;2023-07-24T03:19:41;99358.63;;;19.21;80.09
32081;BME280;18593;51.426;7.030;2023-07-24T03:22:08;99352.22;;;19.17;80.00
32081;BME280;18593;51.426;7.030;2023-07-24T03:24:37;99359.75;;;19.20;80.50
32081;BME280;18593;51.426;7.030;2023-07-24T03:27:04;99352.13;;;19.22;80.25
32081;BME280;18593;51.426;7.030;2023-07-24T03:29:32;99346.44;;;19.23;80.30
32081;BME280;18593;51.426;7.030;2023-07-24T03:31:59;99342.63;;;19.24;80.30
32081;BME280;18593;51.426;7.030;2023-07-24T03:34:26;99336.00;;;19.17;80.45
32081;BME280;18593;51.426;7.030;2023-07-24T03:36:54;99333.28;;;19.17;80.50
32081;BME280;18593;51.426;7.030;2023-07-24T03:39:21;99332.19;;;19.18;80.44
32081;BME280;18593;51.426;7.030;2023-07-24T03:41:49;99328.41;;;19.19;80.69
32081;BME280;18593;51.426;7.030;2023-07-24T03:44:17;99323.00;;;19.19;80.71
32081;BME280;18593;51.426;7.030;2023-07-24T03:46:44;99321.97;;;19.15;81.47
32081;BME280;18593;51.426;7.030;2023-07-24T03:49:11;99318.16;;;19.16;81.06
32081;BME280;18593;51.426;7.030;2023-07-24T03:51:38;99310.88;;;19.16;81.08
32081;BME280;18593;51.426;7.030;2023-07-24T03:54:06;99305.16;;;19.18;80.56
32081;BME280;18593;51.426;7.030;2023-07-24T03:56:33;99301.38;;;19.19;80.94
32081;BME280;18593;51.426;7.030;2023-07-24T03:59:02;99303.78;;;19.20;80.50
32081;BME280;18593;51.426;7.030;2023-07-24T04:01:29;99309.97;;;19.21;80.71
32081;BME280;18593;51.426;7.030;2023-07-24T04:03:57;99304.56;;;19.21;80.34
32081;BME280;18593;51.426;7.030;2023-07-24T04:06:24;99302.16;;;19.19;80.62
32081;BME280;18593;51.426;7.030;2023-07-24T04:08:52;99302.25;;;19.14;81.10
32081;BME280;18593;51.426;7.030;2023-07-24T04:11:19;99291.44;;;19.14;81.12
32081;BME280;18593;51.426;7.030;2023-07-24T04:13:46;99300.84;;;19.17;81.08
32081;BME280;18593;51.426;7.030;2023-07-24T04:16:15;99305.47;;;19.16;80.82
32081;BME280;18593;51.426;7.030;2023-07-24T04:18:42;99295.75;;;19.15;80.97
32081;BME280;18593;51.426;7.030;2023-07-24T04:21:09;99298.75;;;19.14;80.90
32081;BME280;18593;51.426;7.030;2023-07-24T04:23:36;99308.56;;;19.10;80.99
32081;BME280;18593;51.426;7.030;2023-07-24T04:26:04;99304.84;;;19.06;81.56
32081;BME280;18593;51.426;7.030;2023-07-24T04:28:31;99306.94;;;19.09;81.45
32081;BME280;18593;51.426;7.030;2023-07-24T04:31:00;99310.16;;;19.11;81.58
32081;BME280;18593;51.426;7.030;2023-07-24T04:33:29;99312.28;;;19.14;81.33
32081;BME280;18593;51.426;7.030;2023-07-24T04:35:57;99303.63;;;19.12;81.41
32081;BME280;18593;51.426;7.030;2023-07-24T04:38:24;99306.88;;;19.14;81.08
32081;BME280;18593;51.426;7.030;2023-07-24T04:40:52;99311.97;;;19.15;81.36
32081;BME280;18593;51.426;7.030;2023-07-24T04:43:19;99307.34;;;19.16;81.32
32081;BME280;18593;51.426;7.030;2023-07-24T04:45:46;99309.25;;;19.15;81.29
32081;BME280;18593;51.426;7.030;2023-07-24T04:48:14;99292.56;;;19.13;81.02
32081;BME280;18593;51.426;7.030;2023-07-24T04:50:42;99291.72;;;19.13;81.55
32081;BME280;18593;51.426;7.030;2023-07-24T04:53:10;99301.47;;;19.14;81.31
32081;BME280;18593;51.426;7.030;2023-07-24T04:55:37;99298.84;;;19.09;81.51
32081;BME280;18593;51.426;7.030;2023-07-24T04:58:04;99303.72;;;19.07;81.80
32081;BME280;18593;51.426;7.030;2023-07-24T05:00:31;99294.50;;;19.08;82.38
32081;BME280;18593;51.426;7.030;2023-07-24T05:02:59;99290.81;;;19.03;82.43
32081;BME280;18593;51.426;7.030;2023-07-24T05:05:26;99287.59;;;19.01;83.20
32081;BME280;18593;51.426;7.030;2023-07-24T05:07:54;99288.63;;;19.06;82.86
32081;BME280;18593;51.426;7.030;2023-07-24T05:10:21;99293.44;;;19.09;83.00
32081;BME280;18593;51.426;7.030;2023-07-24T05:12:49;99296.41;;;19.07;82.87
32081;BME280;18593;51.426;7.030;2023-07-24T05:15:16;99303.44;;;19.08;83.29
32081;BME280;18593;51.426;7.030;2023-07-24T05:17:43;99309.34;;;19.10;83.58
32081;BME280;18593;51.426;7.030;2023-07-24T05:20:11;99317.25;;;19.07;83.36
32081;BME280;18593;51.426;7.030;2023-07-24T05:22:39;99316.75;;;19.04;83.83
32081;BME280;18593;51.426;7.030;2023-07-24T05:25:08;99322.16;;;19.04;83.84
32081;BME280;18593;51.426;7.030;2023-07-24T05:27:36;99323.44;;;19.07;84.02
32081;BME280;18593;51.426;7.030;2023-07-24T05:30:05;99330.75;;;19.07;84.21
32081;BME280;18593;51.426;7.030;2023-07-24T05:32:32;99332.53;;;18.97;84.77
32081;BME280;18593;51.426;7.030;2023-07-24T05:35:00;99331.72;;;18.97;84.49
32081;BME280;18593;51.426;7.030;2023-07-24T05:37:27;99329.81;;;18.97;84.24
32081;BME280;18593;51.426;7.030;2023-07-24T05:39:54;99334.16;;;18.98;84.59
32081;BME280;18593;51.426;7.030;2023-07-24T05:42:23;99341.16;;;18.99;84.72
32081;BME280;18593;51.426;7.030;2023-07-24T05:44:51;99348.81;;;18.92;85.93
32081;BME280;18593;51.426;7.030;2023-07-24T05:47:18;99336.91;;;18.93;86.13
32081;BME280;18593;51.426;7.030;2023-07-24T05:49:45;99341.16;;;18.99;86.29
32081;BME280;18593;51.426;7.030;2023-07-24T05:52:12;99339.97;;;19.06;86.29
32081;BME280;18593;51.426;7.030;2023-07-24T05:54:40;99344.78;;;19.09;86.02
32081;BME280;18593;51.426;7.030;2023-07-24T05:57:07;99337.75;;;19.08;85.78
32081;BME280;18593;51.426;7.030;2023-07-24T05:59:36;99332.34;;;19.08;85.97
32081;BME280;18593;51.426;7.030;2023-07-24T06:02:03;99337.19;;;19.11;86.19
32081;BME280;18593;51.426;7.030;2023-07-24T06:04:31;99333.47;;;19.07;85.92
32081;BME280;18593;51.426;7.030;2023-07-24T06:06:58;99328.56;;;19.09;85.41
32081;BME280;18593;51.426;7.030;2023-07-24T06:09:25;99332.56;;;19.11;85.68
32081;BME280;18593;51.426;7.030;2023-07-24T06:11:52;99333.28;;;19.17;86.49
32081;BME280;18593;51.426;7.030;2023-07-24T06:14:20;99334.31;;;19.21;87.16
32081;BME280;18593;51.426;7.030;2023-07-24T06:16:48;99341.63;;;19.20;87.23
32081;BME280;18593;51.426;7.030;2023-07-24T06:19:15;99343.00;;;19.18;86.57
32081;BME280;18593;51.426;7.030;2023-07-24T06:21:43;99349.41;;;19.22;86.48
32081;BME280;18593;51.426;7.030;2023-07-24T06:24:10;99349.94;;;19.24;85.54
32081;BME280;18593;51.426;7.030;2023-07-24T06:26:38;99358.84;;;19.24;85.49
32081;BME280;18593;51.426;7.030;2023-07-24T06:29:05;99354.25;;;19.25;85.54
32081;BME280;18593;51.426;7.030;2023-07-24T06:31:32;99349.06;;;19.28;85.40
32081;BME280;18593;51.426;7.030;2023-07-24T06:34:01;99348.84;;;19.25;85.33
32081;BME280;18593;51.426;7.030;2023-07-24T06:36:28;99344.00;;;19.22;85.93
32081;BME280;18593;51.426;7.030;2023-07-24T06:38:55;99346.63;;;19.27;86.29
32081;BME280;18593;51.426;7.030;2023-07-24T06:41:23;99338.34;;;19.23;85.92
32081;BME280;18593;51.426;7.030;2023-07-24T06:43:51;99330.41;;;19.27;86.68
32081;BME280;18593;51.426;7.030;2023-07-24T06:46:18;99339.03;;;19.29;87.72
32081;BME280;18593;51.426;7.030;2023-07-24T06:48:46;99343.84;;;19.32;87.79
32081;BME280;18593;51.426;7.030;2023-07-24T06:51:14;99348.34;;;19.37;87.75
32081;BME280;18593;51.426;7.030;2023-07-24T06:53:42;99348.34;;;19.37;87.30
32081;BME280;18593;51.426;7.030;2023-07-24T06:56:09;99340.63;;;19.30;85.23
32081;BME280;18593;51.426;7.030;2023-07-24T06:58:36;99344.66;;;19.33;85.78
32081;BME280;18593;51.426;7.030;2023-07-24T07:01:06;99340.84;;;19.34;85.60
32081;BME280;18593;51.426;7.030;2023-07-24T07:03:33;99345.06;;;19.40;86.35
32081;BME280;18593;51.426;7.030;2023-07-24T07:06:02;99342.94;;;19.37;87.50
32081;BME280;18593;51.426;7.030;2023-07-24T07:08:31;99337.25;;;19.38;88.39
32081;BME280;18593;51.426;7.030;2023-07-24T07:11:00;99340.16;;;19.42;88.99
32081;BME280;18593;51.426;7.030;2023-07-24T07:13:28;99345.69;;;19.50;89.11
32081;BME280;18593;51.426;7.030;2023-07-24T07:15:55;99354.22;;;19.58;89.70
32081;BME280;18593;51.426;7.030;2023-07-24T07:18:23;99351.22;;;19.59;89.44
32081;BME280;18593;51.426;7.030;2023-07-24T07:20:52;99352.09;;;19.54;88.04
32081;BME280;18593;51.426;7.030;2023-07-24T07:23:20;99354.91;;;19.49;87.05
32081;BME280;18593;51.426;7.030;2023-07-24T07:25:51;99345.69;;;19.50;87.05
32081;BME280;18593;51.426;7.030;2023-07-24T07:28:18;99346.78;;;19.49;85.79
32081;BME280;18593;51.426;7.030;2023-07-24T07:30:45;99337.34;;;19.47;86.24
32081;BME280;18593;51.426;7.030;2023-07-24T07:33:12;99346.97;;;19.39;85.62
32081;BME280;18593;51.426;7.030;2023-07-24T07:35:40;99342.66;;;19.38;85.91
32081;BME280;18593;51.426;7.030;2023-07-24T07:38:07;99346.41;;;19.42;85.66
32081;BME280;18593;51.426;7.030;2023-07-24T07:40:37;99342.28;;;19.45;86.52
32081;BME280;18593;51.426;7.030;2023-07-24T07:43:06;99335.28;;;19.44;85.92
32081;BME280;18593;51.426;7.030;2023-07-24T07:45:34;99332.88;;;19.42;86.19
32081;BME280;18593;51.426;7.030;2023-07-24T07:48:01;99330.66;;;19.44;86.09
32081;BME280;18593;51.426;7.030;2023-07-24T07:50:28;99334.88;;;19.50;85.88
32081;BME280;18593;51.426;7.030;2023-07-24T07:52:56;99335.81;;;19.60;86.21
32081;BME280;18593;51.426;7.030;2023-07-24T07:55:23;99331.72;;;19.62;85.63
32081;BME280;18593;51.426;7.030;2023-07-24T07:57:51;99335.94;;;19.68;85.51
32081;BME280;18593;51.426;7.030;2023-07-24T08:00:19;99334.16;;;19.77;87.13
32081;BME280;18593;51.426;7.030;2023-07-24T08:02:47;99329.44;;;19.83;87.32
32081;BME280;18593;51.426;7.030;2023-07-24T08:05:14;99331.53;;;19.86;86.60
32081;BME280;18593;51.426;7.030;2023-07-24T08:07:42;99323.31;;;19.91;87.27
32081;BME280;18593;51.426;7.030;2023-07-24T08:10:09;99324.63;;;19.94;86.96
32081;BME280;18593;51.426;7.030;2023-07-24T08:12:37;99319.31;;;20.02;87.05
32081;BME280;18593;51.426;7.030;2023-07-24T08:15:05;99318.69;;;20.05;85.81
32081;BME280;18593;51.426;7.030;2023-07-24T08:17:34;99319.28;;;20.16;87.22
32081;BME280;18593;51.426;7.030;2023-07-24T08:20:02;99312.25;;;20.29;86.83
32081;BME280;18593;51.426;7.030;2023-07-24T08:22:29;99318.84;;;20.37;86.22
32081;BME280;18593;51.426;7.030;2023-07-24T08:24:56;99308.94;;;20.32;84.27
32081;BME280;18593;51.426;7.030;2023-07-24T08:27:23;99317.88;;;20.19;83.34
32081;BME280;18593;51.426;7.030;2023-07-24T08:29:51;99308.28;;;19.99;82.24
32081;BME280;18593;51.426;7.030;2023-07-24T08:32:19;99311.28;;;19.97;83.39
32081;BME280;18593;51.426;7.030;2023-07-24T08:34:47;99316.28;;;19.90;83.04
32081;BME280;18593;51.426;7.030;2023-07-24T08:37:14;99324.31;;;19.82;83.45
32081;BME280;18593;51.426;7.030;2023-07-24T08:39:42;99320.22;;;19.84;84.71
32081;BME280;18593;51.426;7.030;2023-07-24T08:42:11;99319.50;;;19.92;84.89
32081;BME280;18593;51.426;7.030;2023-07-24T08:44:39;99316.19;;;19.95;85.25
32081;BME280;18593;51.426;7.030;2023-07-24T08:47:10;99313.78;;;19.94;86.44
32081;BME280;18593;51.426;7.030;2023-07-24T08:49:39;99312.41;;;19.96;86.15
32081;BME280;18593;51.426;7.030;2023-07-24T08:52:08;99320.09;;;20.03;86.17
32081;BME280;18593;51.426;7.030;2023-07-24T08:54:36;99319.19;;;20.08;85.80
32081;BME280;18593;51.426;7.030;2023-07-24T08:57:06;99316.88;;;20.15;86.69
32081;BME280;18593;51.426;7.030;2023-07-24T08:59:35;99312.94;;;20.35;88.31
32081;BME280;18593;51.426;7.030;2023-07-24T09:02:03;99316.53;;;20.44;85.82
32081;BME280;18593;51.426;7.030;2023-07-24T09:04:31;99313.63;;;20.40;84.56
32081;BME280;18593;51.426;7.030;2023-07-24T09:06:58;99314.59;;;20.44;82.26
32081;BME280;18593;51.426;7.030;2023-07-24T09:09:30;99318.53;;;20.38;82.20
32081;BME280;18593;51.426;7.030;2023-07-24T09:11:58;99311.84;;;20.36;80.09
32081;BME280;18593;51.426;7.030;2023-07-24T09:14:28;99310.53;;;20.33;80.97
32081;BME280;18593;51.426;7.030;2023-07-24T09:17:03;99316.03;;;20.42;81.83
32081;BME280;18593;51.426;7.030;2023-07-24T09:19:31;99307.72;;;20.52;82.33
32081;BME280;18593;51.426;7.030;2023-07-24T09:22:09;99297.88;;;20.56;81.41
32081;BME280;18593;51.426;7.030;2023-07-24T09:24:38;99296.97;;;20.61;81.38
32081;BME280;18593;51.426;7.030;2023-07-24T09:27:06;99295.13;;;20.70;83.00
32081;BME280;18593;51.426;7.030;2023-07-24T09:29:34;99296.19;;;20.69;80.42
32081;BME280;18593;51.426;7.030;2023-07-24T09:32:01;99291.41;;;20.66;79.67
32081;BME280;18593;51.426;7.030;2023-07-24T09:34:29;99294.16;;;20.52;76.79
32081;BME280;18593;51.426;7.030;2023-07-24T09:36:56;99298.66;;;20.43;77.82
32081;BME280;18593;51.426;7.030;2023-07-24T09:39:24;99297.38;;;20.40;78.79
32081;BME280;18593;51.426;7.030;2023-07-24T09:41:53;99296.19;;;20.32;78.92
32081;BME280;18593;51.426;7.030;2023-07-24T09:44:21;99302.84;;;20.26;79.35
32081;BME280;18593;51.426;7.030;2023-07-24T09:46:48;99297.69;;;20.25;79.71
32081;BME280;18593;51.426;7.030;2023-07-24T09:49:16;99296.50;;;20.31;80.38
32081;BME280;18593;51.426;7.030;2023-07-24T09:51:44;99296.78;;;20.29;80.58
32081;BME280;18593;51.426;7.030;2023-07-24T09:54:17;99294.88;;;20.30;80.60
32081;BME280;18593;51.426;7.030;2023-07-24T09:56:46;99295.19;;;20.28;80.20
32081;BME280;18593;51.426;7.030;2023-07-24T09:59:16;99286.59;;;20.26;80.03
32081;BME280;18593;51.426;7.030;2023-07-24T10:01:43;99283.69;;;20.23;79.33
32081;BME280;18593;51.426;7.030;2023-07-24T10:04:11;99280.16;;;20.22;79.30
32081;BME280;18593;51.426;7.030;2023-07-24T10:06:42;99271.84;;;20.19;80.13
32081;BME280;18593;51.426;7.030;2023-07-24T10:09:11;99269.66;;;20.21;81.82
32081;BME280;18593;51.426;7.030;2023-07-24T10:11:38;99266.84;;;20.26;82.81
32081;BME280;18593;51.426;7.030;2023-07-24T10:14:06;99267.91;;;20.25;82.26
32081;BME280;18593;51.426;7.030;2023-07-24T10:16:35;99266.88;;;20.35;82.98
32081;BME280;18593;51.426;7.030;2023-07-24T10:19:14;99268.09;;;20.42;83.54
32081;BME280;18593;51.426;7.030;2023-07-24T10:21:46;99260.34;;;20.49;83.71
32081;BME280;18593;51.426;7.030;2023-07-24T10:24:14;99244.97;;;20.58;85.36
32081;BME280;18593;51.426;7.030;2023-07-24T10:26:42;99250.25;;;20.64;84.89
32081;BME280;18593;51.426;7.030;2023-07-24T10:29:09;99253.34;;;20.71;84.46
32081;BME280;18593;51.426;7.030;2023-07-24T10:31:38;99237.91;;;20.71;83.92
32081;BME280;18593;51.426;7.030;2023-07-24T10:34:07;99243.19;;;20.76;84.28
32081;BME280;18593;51.426;7.030;2023-07-24T10:36:36;99246.69;;;20.77;83.30
32081;BME280;18593;51.426;7.030;2023-07-24T10:39:13;99249.09;;;20.78;83.02
32081;BME280;18593;51.426;7.030;2023-07-24T10:41:41;99253.22;;;20.76;81.61
32081;BME280;18593;51.426;7.030;2023-07-24T10:44:10;99246.03;;;20.71;79.26
32081;BME280;18593;51.426;7.030;2023-07-24T10:46:40;99254.16;;;20.71;79.53
32081;BME280;18593;51.426;7.030;2023-07-24T10:49:09;99251.44;;;20.71;80.69
32081;BME280;18593;51.426;7.030;2023-07-24T10:51:36;99254.94;;;20.72;80.53
32081;BME280;18593;51.426;7.030;2023-07-24T10:54:04;99255.88;;;20.67;79.25
32081;BME280;18593;51.426;7.030;2023-07-24T10:56:32;99250.78;;;20.66;79.48
32081;BME280;18593;51.426;7.030;2023-07-24T10:59:03;99254.09;;;20.63;78.91
32081;BME280;18593;51.426;7.030;2023-07-24T11:01:32;99241.19;;;20.60;79.49
32081;BME280;18593;51.426;7.030;2023-07-24T11:04:00;99242.13;;;20.64;80.62
32081;BME280;18593;51.426;7.030;2023-07-24T11:06:28;99237.50;;;20.64;80.25
32081;BME280;18593;51.426;7.030;2023-07-24T11:08:57;99234.13;;;20.58;78.70
32081;BME280;18593;51.426;7.030;2023-07-24T11:11:29;99229.81;;;20.57;79.30
32081;BME280;18593;51.426;7.030;2023-07-24T11:13:56;99234.94;;;20.59;80.06
32081;BME280;18593;51.426;7.030;2023-07-24T11:16:23;99224.09;;;20.59;80.27
32081;BME280;18593;51.426;7.030;2023-07-24T11:18:51;99224.09;;;20.59;81.34
32081;BME280;18593;51.426;7.030;2023-07-24T11:21:20;99217.88;;;20.58;80.81
32081;BME280;18593;51.426;7.030;2023-07-24T11:23:48;99213.56;;;20.57;80.87
32081;BME280;18593;51.426;7.030;2023-07-24T11:26:19;99220.72;;;20.53;80.98
32081;BME280;18593;51.426;7.030;2023-07-24T11:28:46;99212.41;;;20.50;80.89
32081;BME280;18593;51.426;7.030;2023-07-24T11:31:13;99206.19;;;20.49;81.39
32081;BME280;18593;51.426;7.030;2023-07-24T11:33:42;99216.53;;;20.47;81.26
32081;BME280;18593;51.426;7.030;2023-07-24T11:36:10;99222.53;;;20.44;81.42
32081;BME280;18593;51.426;7.030;2023-07-24T11:38:40;99222.97;;;20.38;81.13
32081;BME280;18593;51.426;7.030;2023-07-24T11:41:08;99227.88;;;20.36;80.92
32081;BME280;18593;51.426;7.030;2023-07-24T11:43:36;99226.59;;;20.33;81.17
32081;BME280;18593;51.426;7.030;2023-07-24T11:46:11;99221.75;;;20.30;80.37
32081;BME280;18593;51.426;7.030;2023-07-24T11:48:48;99266.94;;;20.21;79.57
32081;BME280;18593;51.426;7.030;2023-07-24T11:51:19;99315.69;;;20.07;80.46
32081;BME280;18593;51.426;7.030;2023-07-24T11:53:48;99320.91;;;19.90;81.11
32081;BME280;18593;51.426;7.030;2023-07-24T11:56:17;99329.22;;;19.79;79.88
32081;BME280;18593;51.426;7.030;2023-07-24T11:58:47;99303.72;;;19.39;75.13
32081;BME280;18593;51.426;7.030;2023-07-24T12:01:14;99297.78;;;19.37;76.07
32081;BME280;18593;51.426;7.030;2023-07-24T12:03:42;99298.69;;;19.33;75.37
32081;BME280;18593;51.426;7.030;2023-07-24T12:06:14;99269.72;;;19.19;74.19
32081;BME280;18593;51.426;7.030;2023-07-24T12:08:42;99240.81;;;19.20;74.40
32081;BME280;18593;51.426;7.030;2023-07-24T12:11:18;99252.41;;;19.20;74.16
32081;BME280;18593;51.426;7.030;2023-07-24T12:13:45;99245.63;;;19.23;74.68
32081;BME280;18593;51.426;7.030;2023-07-24T12:16:12;99263.13;;;19.25;74.20
32081;BME280;18593;51.426;7.030;2023-07-24T12:18:40;99258.13;;;19.19;73.54
32081;BME280;18593;51.426;7.030;2023-07-24T12:21:07;99250.59;;;19.16;73.63
32081;BME280;18593;51.426;7.030;2023-07-24T12:23:34;99252.09;;;19.08;74.07
32081;BME280;18593;51.426;7.030;2023-07-24T12:26:01;99258.59;;;19.07;73.87
32081;BME280;18593;51.426;7.030;2023-07-24T12:28:30;99255.88;;;19.07;73.44
32081;BME280;18593;51.426;7.030;2023-07-24T12:30:57;99255.28;;;19.10;73.94
32081;BME280;18593;51.426;7.030;2023-07-24T12:33:24;99256.91;;;19.11;74.35
32081;BME280;18593;51.426;7.030;2023-07-24T12:35:52;99273.03;;;19.16;74.82
32081;BME280;18593;51.426;7.030;2023-07-24T12:38:20;99283.97;;;19.25;75.17
32081;BME280;18593;51.426;7.030;2023-07-24T12:40:47;99278.75;;;19.28;75.77
32081;BME280;18593;51.426;7.030;2023-07-24T12:43:15;99279.16;;;19.36;76.25
32081;BME280;18593;51.426;7.030;2023-07-24T12:45:43;99272.56;;;19.28;77.66
32081;BME280;18593;51.426;7.030;2023-07-24T12:48:11;99276.16;;;19.37;77.71
32081;BME280;18593;51.426;7.030;2023-07-24T12:50:38;99261.94;;;19.45;77.54
32081;BME280;18593;51.426;7.030;2023-07-24T12:53:05;99258.13;;;19.46;77.96
32081;BME280;18593;51.426;7.030;2023-07-24T12:55:32;99249.13;;;19.51;77.76
32081;BME280;18593;51.426;7.030;2023-07-24T12:58:00;99232.78;;;19.56;76.90
32081;BME280;18593;51.426;7.030;2023-07-24T13:00:29;99245.03;;;19.53;79.09
32081;BME280;18593;51.426;7.030;2023-07-24T13:02:58;99233.31;;;19.58;79.63
32081;BME280;18593;51.426;7.030;2023-07-24T13:05:26;99237.34;;;19.61;81.18